createdAt,value
2022-09-26T00:01:47.706Z,12.85
2022-09-26T00:05:11.485Z,9.02
2022-09-26T00:08:35.470Z,7.32
2022-09-26T00:11:57.990Z,25.17
2022-09-26T00:15:19.960Z,10.80
2022-09-26T00:18:42.357Z,5.85
2022-09-26T00:22:04.339Z,5.35
2022-09-26T00:25:27.759Z,7.78
2022-09-26T00:28:50.175Z,9.05
2022-09-26T00:32:13.213Z,5.05
2022-09-26T00:35:34.986Z,6.55
2022-09-26T00:38:57.399Z,5.00
2022-09-26T00:42:25.231Z,4.97
2022-09-26T00:45:47.470Z,3.28
2022-09-26T00:49:23.196Z,4.93
2022-09-26T00:52:50.148Z,2.88
2022-09-26T00:56:16.581Z,6.35
2022-09-26T00:59:44.566Z,4.00
2022-09-26T01:03:06.782Z,3.45
2022-09-26T01:06:29.289Z,3.47
2022-09-26T01:09:55.490Z,4.28
2022-09-26T01:13:18.316Z,2.38
2022-09-26T01:16:45.987Z,2.80
2022-09-26T01:20:31.703Z,3.10
2022-09-26T01:24:26.867Z,3.88
2022-09-26T01:28:01.776Z,3.38
2022-09-26T01:31:36.669Z,3.00
2022-09-26T01:35:06.937Z,2.10
2022-09-26T01:38:42.237Z,3.85
2022-09-26T01:42:14.581Z,2.20
2022-09-26T01:45:48.122Z,2.20
2022-09-26T01:49:18.026Z,3.83
2022-09-26T01:52:43.089Z,3.15
2022-09-26T01:56:11.021Z,4.65
2022-09-26T01:59:39.240Z,4.22
2022-09-26T02:03:02.761Z,3.93
2022-09-26T02:06:33.972Z,3.95
2022-09-26T02:10:00.972Z,2.85
2022-09-26T02:13:26.800Z,3.17
2022-09-26T02:16:51.493Z,2.08
2022-09-26T02:20:19.626Z,2.17
2022-09-26T02:23:43.349Z,2.38
2022-09-26T02:27:06.968Z,2.22
2022-09-26T02:30:30.157Z,2.72
2022-09-26T02:33:53.275Z,3.83
2022-09-26T02:37:17.120Z,2.67
2022-09-26T02:40:49.206Z,5.70
2022-09-26T02:44:25.814Z,6.53
2022-09-26T02:48:15.813Z,7.00
2022-09-26T02:51:57.528Z,7.18
2022-09-26T02:55:23.280Z,11.23
2022-09-26T02:58:53.975Z,9.80
2022-09-26T03:02:18.842Z,8.38
2022-09-26T03:05:43.801Z,9.15
2022-09-26T03:09:07.113Z,7.55
2022-09-26T03:12:32.582Z,7.18
2022-09-26T03:16:00.083Z,5.70
2022-09-26T03:19:29.644Z,7.53
2022-09-26T03:26:17.165Z,4.47
2022-09-26T03:29:39.317Z,3.72
2022-09-26T03:33:03.493Z,3.13
2022-09-26T03:36:26.093Z,3.30
2022-09-26T03:39:48.269Z,4.38
2022-09-26T03:43:11.017Z,3.25
2022-09-26T03:46:36.252Z,4.00
2022-09-26T03:50:03.380Z,3.20
2022-09-26T03:53:25.529Z,3.15
2022-09-26T03:56:47.461Z,4.88
2022-09-26T04:00:10.713Z,3.85
2022-09-26T04:03:35.543Z,4.45
2022-09-26T04:06:59.420Z,3.65
2022-09-26T04:10:24.435Z,2.22
2022-09-26T04:13:51.830Z,2.75
2022-09-26T04:17:14.980Z,4.22
2022-09-26T04:20:36.953Z,2.78
2022-09-26T04:24:00.191Z,2.42
2022-09-26T04:27:22.410Z,2.83
2022-09-26T04:30:44.463Z,5.18
2022-09-26T04:34:06.815Z,8.90
2022-09-26T04:37:28.656Z,3.40
2022-09-26T04:40:51.960Z,2.72
2022-09-26T04:44:15.334Z,3.25
2022-09-26T04:47:37.267Z,3.35
2022-09-26T04:50:59.146Z,6.57
2022-09-26T04:54:21.086Z,5.72
2022-09-26T04:57:44.350Z,6.93
2022-09-26T05:01:08.240Z,4.85
2022-09-26T05:04:33.203Z,4.10
2022-09-26T05:07:55.328Z,4.43
2022-09-26T05:11:18.514Z,4.03
2022-09-26T05:14:42.226Z,4.07
2022-09-26T05:18:04.272Z,3.08
2022-09-26T05:21:26.260Z,3.33
2022-09-26T05:25:05.759Z,3.15
2022-09-26T05:28:28.138Z,2.72
2022-09-26T05:31:54.278Z,2.55
2022-09-26T05:35:16.479Z,2.97
2022-09-26T05:38:38.274Z,6.18
2022-09-26T05:41:59.989Z,4.82
2022-09-26T05:45:22.134Z,2.20
2022-09-26T05:48:45.666Z,3.58
2022-09-26T05:52:07.858Z,3.50
2022-09-26T05:55:31.537Z,4.35
2022-09-26T05:58:55.180Z,2.15
2022-09-26T06:02:20.737Z,2.70
2022-09-26T06:05:44.750Z,2.88
2022-09-26T06:09:07.562Z,2.50
2022-09-26T06:12:29.611Z,2.25
2022-09-26T06:15:52.237Z,3.30
2022-09-26T06:19:14.453Z,2.08
2022-09-26T06:22:42.077Z,2.85
2022-09-26T06:26:05.208Z,4.13
2022-09-26T06:29:30.362Z,2.20
2022-09-26T06:32:53.241Z,1.70
2022-09-26T06:36:15.092Z,2.25
2022-09-26T06:39:38.255Z,2.75
2022-09-26T06:43:00.366Z,2.28
2022-09-26T06:46:22.722Z,4.55
2022-09-26T06:49:47.784Z,3.03
2022-09-26T06:53:09.739Z,3.15
2022-09-26T06:56:33.344Z,2.05
2022-09-26T06:59:55.330Z,2.47
2022-09-26T07:03:17.192Z,2.70
2022-09-26T07:06:39.149Z,4.55
2022-09-26T07:10:01.492Z,2.97
2022-09-26T07:13:24.863Z,3.80
2022-09-26T07:16:49.305Z,3.78
2022-09-26T07:20:12.373Z,1.95
2022-09-26T07:23:34.340Z,4.15
2022-09-26T07:26:56.464Z,5.00
2022-09-26T07:30:20.712Z,3.70
2022-09-26T07:33:42.709Z,2.45
2022-09-26T07:37:04.651Z,5.50
2022-09-26T07:40:26.671Z,5.70
2022-09-26T07:47:52.624Z,1.77
2022-09-26T07:51:14.834Z,7.43
2022-09-26T07:54:37.054Z,5.03
2022-09-26T07:57:59.478Z,4.85
2022-09-26T08:01:21.357Z,9.45
2022-09-26T08:04:44.610Z,3.42
2022-09-26T08:08:06.189Z,2.35
2022-09-26T08:11:28.531Z,4.78
2022-09-26T08:14:51.453Z,2.50
2022-09-26T08:18:13.488Z,2.42
2022-09-26T08:21:36.922Z,2.45
2022-09-26T08:25:00.497Z,3.28
2022-09-26T08:28:22.673Z,7.55
2022-09-26T08:31:46.301Z,2.90
2022-09-26T08:35:12.247Z,1.73
2022-09-26T08:39:35.540Z,4.18
2022-09-26T08:43:07.553Z,1.00
2022-09-26T08:46:49.068Z,2.22
2022-09-26T08:50:19.024Z,1.73
2022-09-26T08:53:54.009Z,1.70
2022-09-26T09:00:44.992Z,2.45
2022-09-26T09:04:14.768Z,1.50
2022-09-26T09:07:36.914Z,1.50
2022-09-26T09:11:06.486Z,1.95
2022-09-26T09:14:43.782Z,1.10
2022-09-26T09:18:19.145Z,0.80
2022-09-26T09:21:52.752Z,1.85
2022-09-26T09:25:21.107Z,0.77
2022-09-26T09:29:10.061Z,0.93
2022-09-26T09:32:42.217Z,2.83
2022-09-26T09:36:10.350Z,1.02
2022-09-26T09:39:36.651Z,0.85
2022-09-26T09:43:04.284Z,2.35
2022-09-26T09:46:29.360Z,1.58
2022-09-26T09:49:52.886Z,1.73
2022-09-26T09:53:33.274Z,1.10
2022-09-26T10:22:33.346Z,2.80
2022-09-26T10:26:00.745Z,1.27
2022-09-26T10:29:25.961Z,1.88
2022-09-26T10:32:56.309Z,1.00
2022-09-26T10:36:21.017Z,1.30
2022-09-26T10:40:16.265Z,1.35
2022-09-26T10:43:39.388Z,1.58
2022-09-26T10:47:08.303Z,0.88
2022-09-26T10:50:32.660Z,0.90
2022-09-26T10:54:00.032Z,1.98
2022-09-26T10:57:29.661Z,0.75
2022-09-26T11:00:52.496Z,1.23
2022-09-26T11:04:36.410Z,0.75
2022-09-26T11:07:58.552Z,0.70
2022-09-26T11:11:22.464Z,1.30
2022-09-26T11:14:47.148Z,1.08
2022-09-26T11:18:20.596Z,1.38
2022-09-26T11:21:47.625Z,1.17
2022-09-26T11:25:17.310Z,1.13
2022-09-26T11:28:45.385Z,1.30
2022-09-26T11:32:14.803Z,1.27
2022-09-26T11:39:20.254Z,1.88
2022-09-26T11:42:55.636Z,0.95
2022-09-26T11:46:36.123Z,2.65
2022-09-26T11:50:14.923Z,0.88
2022-09-26T11:53:49.485Z,1.63
2022-09-26T11:57:29.779Z,1.58
2022-09-26T12:00:58.169Z,1.00
2022-09-26T12:04:45.257Z,1.35
2022-09-26T12:08:23.663Z,0.98
2022-09-26T12:11:59.371Z,1.33
2022-09-26T12:15:24.627Z,1.10
2022-09-26T12:18:58.013Z,1.20
2022-09-26T12:22:31.071Z,0.82
2022-09-26T12:26:08.789Z,0.60
2022-09-26T12:29:38.695Z,0.75
2022-09-26T12:33:21.585Z,0.85
2022-09-26T12:37:01.967Z,0.90
2022-09-26T12:40:34.275Z,0.77
2022-09-26T12:44:27.331Z,1.00
2022-09-26T12:48:03.970Z,1.52
2022-09-26T12:51:37.601Z,0.80
2022-09-26T12:55:24.398Z,0.90
2022-09-26T12:59:04.672Z,4.35
2022-09-26T13:03:05.184Z,2.50
2022-09-26T13:07:18.900Z,1.67
2022-09-26T13:10:57.828Z,1.10
2022-09-26T13:14:35.071Z,2.28
2022-09-26T13:18:04.298Z,3.72
2022-09-26T13:26:26.255Z,1.52
2022-09-26T13:29:55.145Z,1.10
2022-09-26T13:33:24.262Z,1.33
2022-09-26T13:36:47.581Z,0.60
2022-09-26T13:40:22.610Z,1.13
2022-09-26T13:43:55.753Z,0.70
2022-09-26T13:47:27.205Z,1.65
2022-09-26T13:50:55.747Z,1.00
2022-09-26T13:54:27.127Z,0.80
2022-09-26T13:58:05.424Z,1.00
2022-09-26T14:01:28.979Z,1.13
2022-09-26T14:04:51.668Z,3.38
2022-09-26T14:08:50.181Z,1.05
2022-09-26T14:12:21.092Z,0.80
2022-09-26T14:16:03.364Z,1.98
2022-09-26T14:19:36.361Z,1.35
2022-09-26T14:22:58.843Z,1.02
2022-09-26T14:26:23.672Z,3.10
2022-09-26T14:29:51.654Z,2.78
2022-09-26T14:33:15.369Z,1.27
2022-09-26T14:36:37.739Z,1.38
2022-09-26T14:40:30.300Z,0.63
2022-09-26T14:43:53.884Z,2.60
2022-09-26T14:47:17.517Z,0.90
2022-09-26T14:50:48.948Z,1.27
2022-09-26T14:54:23.209Z,0.88
2022-09-26T14:57:47.368Z,0.73
2022-09-26T15:01:18.143Z,0.63
2022-09-26T15:04:41.328Z,3.33
2022-09-26T15:08:03.805Z,1.02
2022-09-26T15:11:33.150Z,0.85
2022-09-26T15:15:05.458Z,2.13
2022-09-26T15:18:37.447Z,0.90
2022-09-26T15:22:03.937Z,1.02
2022-09-26T15:25:31.814Z,1.58
2022-09-26T15:28:57.293Z,1.88
2022-09-26T15:32:26.425Z,2.13
2022-09-26T15:35:56.420Z,2.90
2022-09-26T15:39:43.153Z,2.45
2022-09-26T15:43:12.305Z,2.30
2022-09-26T15:46:34.692Z,2.15
2022-09-26T15:50:15.921Z,2.88
2022-09-26T15:53:43.461Z,3.75
2022-09-26T15:57:08.221Z,3.00
2022-09-26T16:00:34.327Z,2.75
2022-09-26T16:03:58.809Z,4.38
2022-09-26T16:07:25.003Z,4.18
2022-09-26T16:10:55.465Z,3.92
2022-09-26T16:14:31.249Z,3.22
2022-09-26T16:17:54.588Z,2.97
2022-09-26T16:21:19.398Z,2.55
2022-09-26T16:24:41.570Z,4.55
2022-09-26T16:28:23.836Z,3.05
2022-09-26T16:31:47.725Z,4.20
2022-09-26T16:35:19.754Z,2.75
2022-09-26T16:38:41.959Z,3.22
2022-09-26T16:42:06.028Z,4.60
2022-09-26T16:45:29.599Z,4.30
2022-09-26T16:48:55.301Z,4.95
2022-09-26T16:52:28.577Z,5.00
2022-09-26T16:55:50.550Z,3.55
2022-09-26T16:59:17.697Z,3.30
2022-09-26T17:02:40.846Z,4.20
2022-09-26T17:06:03.020Z,4.30
2022-09-26T17:09:28.382Z,2.70
2022-09-26T17:12:53.448Z,6.45
2022-09-26T17:16:15.513Z,5.28
2022-09-26T17:19:41.283Z,5.13
2022-09-26T17:23:22.000Z,5.00
2022-09-26T17:26:51.130Z,4.05
2022-09-26T17:30:18.166Z,4.45
2022-09-26T17:33:42.899Z,2.63
2022-09-26T17:37:06.271Z,2.25
2022-09-26T17:40:31.056Z,4.20
2022-09-26T17:43:58.742Z,3.13
2022-09-26T17:47:28.669Z,3.28
2022-09-26T17:50:50.406Z,2.10
2022-09-26T17:54:20.506Z,2.35
2022-09-26T17:57:42.977Z,1.83
2022-09-26T18:01:06.583Z,2.15
2022-09-26T18:04:30.532Z,2.85
2022-09-26T18:07:54.684Z,2.15
2022-09-26T18:11:19.967Z,2.03
2022-09-26T18:14:42.893Z,1.60
2022-09-26T18:18:05.382Z,1.63
2022-09-26T18:21:27.531Z,1.73
2022-09-26T18:24:52.516Z,2.10
2022-09-26T18:28:19.375Z,4.30
2022-09-26T18:31:42.960Z,2.55
2022-09-26T18:35:04.833Z,3.13
2022-09-26T18:38:26.979Z,2.90
2022-09-26T18:41:59.983Z,2.88
2022-09-26T18:45:28.808Z,2.67
2022-09-26T18:48:51.941Z,4.40
2022-09-26T18:52:18.144Z,2.42
2022-09-26T18:55:57.980Z,2.33
2022-09-26T18:59:20.593Z,3.35
2022-09-26T19:02:45.410Z,2.13
2022-09-26T19:06:12.323Z,1.80
2022-09-26T19:09:36.799Z,2.28
2022-09-26T19:12:59.596Z,3.80
2022-09-26T19:16:22.855Z,1.60
2022-09-26T19:19:46.612Z,1.73
2022-09-26T19:23:10.670Z,2.08
2022-09-26T19:26:37.878Z,3.30
2022-09-26T19:30:03.075Z,1.80
2022-09-26T19:33:26.086Z,1.35
2022-09-26T19:36:52.508Z,1.38
2022-09-26T19:40:15.868Z,1.70
2022-09-26T19:43:38.087Z,2.33
2022-09-26T19:47:00.032Z,1.63
2022-09-26T19:50:24.486Z,1.48
2022-09-26T19:53:47.730Z,2.83
2022-09-26T19:57:15.175Z,3.30
2022-09-26T20:00:41.637Z,2.10
2022-09-26T20:04:03.652Z,2.03
2022-09-26T20:07:25.931Z,2.13
2022-09-26T20:10:49.928Z,1.92
2022-09-26T20:14:27.333Z,1.63
2022-09-26T20:17:49.906Z,2.92
2022-09-26T20:21:14.764Z,2.13
2022-09-26T20:24:39.648Z,3.53
2022-09-26T20:28:04.502Z,2.30
2022-09-26T20:31:28.603Z,2.75
2022-09-26T20:34:50.534Z,2.47
2022-09-26T20:38:17.922Z,2.88
2022-09-26T20:41:42.066Z,2.53
2022-09-26T20:45:06.412Z,2.95
2022-09-26T20:48:29.822Z,2.97
2022-09-26T20:51:53.871Z,1.83
2022-09-26T20:55:18.060Z,2.45
2022-09-26T20:58:41.815Z,2.50
2022-09-26T21:02:24.727Z,1.80
2022-09-26T21:05:47.153Z,2.25
2022-09-26T21:09:15.911Z,1.70
2022-09-26T21:12:37.887Z,4.73
2022-09-26T21:16:00.737Z,2.60
2022-09-26T21:19:25.456Z,2.03
2022-09-26T21:22:47.613Z,2.25
2022-09-26T21:26:17.293Z,2.22
2022-09-26T21:29:39.392Z,3.33
2022-09-26T21:33:01.647Z,2.22
2022-09-26T21:36:30.471Z,3.03
2022-09-26T21:39:56.047Z,2.42
2022-09-26T21:43:21.760Z,2.60
2022-09-26T21:46:43.716Z,2.42
2022-09-26T21:50:06.440Z,1.77
2022-09-26T21:53:34.679Z,1.92
2022-09-26T21:56:59.728Z,2.38
2022-09-26T22:00:23.087Z,2.78
2022-09-26T22:03:45.085Z,1.70
2022-09-26T22:07:07.940Z,2.00
2022-09-26T22:10:31.436Z,2.42
2022-09-26T22:13:54.186Z,2.10
2022-09-26T22:17:16.280Z,1.50
2022-09-26T22:20:38.302Z,2.65
2022-09-26T22:24:00.222Z,2.90
2022-09-26T22:27:23.643Z,1.95
2022-09-26T22:30:45.923Z,3.75
2022-09-26T22:34:07.645Z,3.10
2022-09-26T22:37:29.735Z,2.38
2022-09-26T22:40:57.319Z,2.40
2022-09-26T22:58:04.925Z,2.47
2022-09-26T23:01:29.442Z,2.75
2022-09-26T23:04:52.170Z,2.00
2022-09-26T23:08:15.126Z,2.67
2022-09-26T23:11:38.291Z,2.17
2022-09-26T23:15:02.787Z,1.92
2022-09-26T23:18:25.648Z,1.50
2022-09-26T23:21:48.913Z,1.90
2022-09-26T23:25:13.305Z,2.28
2022-09-26T23:28:36.366Z,1.60
2022-09-26T23:32:00.588Z,1.80
2022-09-26T23:35:23.925Z,2.55
2022-09-26T23:38:46.988Z,1.83
2022-09-26T23:42:09.743Z,2.05
2022-09-26T23:45:32.704Z,2.08
2022-09-26T23:48:56.896Z,3.30
2022-09-26T23:52:20.157Z,2.70
2022-09-26T23:55:43.217Z,2.20
2022-09-26T23:59:06.491Z,2.00
